Latest Weather Observations for Walgett

IDN60801

Issued at 1:32 pm EST Sunday 24 May 2015 (issued every 30 minutes, with the page automatically refreshed every 10 minutes)

About weather observations | Map of weather stations | Latest weather observations for NSW | Other Formats
Station Details ID: 052088 Name: WALGETT AIRPORT AWS Lat: -30.04 Lon: 148.12 Height: 133.0 m
Data from the previous 72 hours. | See also: Recent months at Walgett
Date/Time
EST
Temp
°C
App
Temp
°C
Dew
Point
Rel
Hum
%
Delta-T
°C
Wind Press
QNH
hPa
Press
MSL
hPa
Rain
since 9 am
mm
Dir
 
Spd
km/h
Gust
km/h
Spd
kts
Gust
kts
24/01:30pm 19.8 17.2 7.9 46 6.1 NE 11 15 6 8 1028.8 1028.7 0.0
24/01:00pm 19.4 16.9 8.4 49 5.7 NNE 11 20 6 11 1029.0 1028.9 0.0
24/12:30pm 18.7 15.0 7.8 49 5.6 NNE 17 22 9 12 1029.5 1029.4 0.0
24/12:00pm 19.0 15.8 8.6 51 5.4 NE 15 22 8 12 1030.0 1029.9 0.0
24/11:30am 18.3 14.7 8.3 52 5.2 ENE 17 20 9 11 1030.3 1030.2 0.0
24/11:00am 17.6 13.7 8.5 55 4.7 ENE 19 24 10 13 1030.6 1030.5 0.0
24/10:30am 16.8 12.7 8.8 59 4.1 E 20 24 11 13 1030.9 1030.9 0.0
24/10:00am 15.4 11.6 9.1 66 3.2 ENE 19 22 10 12 1031.1 1031.1 0.0
24/08:30am 9.2 7.4 8.1 93 0.5 ESE 7 13 4 7 1030.6 1030.5 0.0
24/08:00am 6.9 4.8 6.6 98 0.1 SE 7 9 4 5 1030.3 1030.2 0.0
24/07:59am 6.8 4.7 6.5 98 0.1 SE 7 9 4 5 1030.3 1030.2 0.0
24/07:30am 4.4 1.8 4.0 97 0.2 SSE 7 11 4 6 1030.3 1030.2 0.0
24/07:00am 3.8 2.4 3.4 97 0.2 CALM 0 0 0 0 1030.0 1029.9 0.0
24/06:30am 3.4 1.9 2.8 96 0.2 CALM 0 0 0 0 1029.6 1029.5 0.0
24/05:30am 3.6 2.1 2.9 95 0.3 CALM 0 0 0 0 1029.0 1028.9 0.0
24/05:00am 4.7 3.4 4.1 96 0.3 CALM 0 0 0 0 1028.7 1028.6 0.0
24/04:40am 5.1 3.9 4.5 96 0.3 CALM 0 0 0 0 1028.8 1028.7 0.0
24/04:30am 5.1 3.1 4.5 96 0.3 SSE 4 6 2 3 1028.6 1028.5 0.0
24/04:00am 6.1 3.8 5.5 96 0.3 SSE 7 9 4 5 1028.5 1028.4 0.0
24/03:55am 6.3 4.0 5.7 96 0.3 SSE 7 9 4 5 1028.5 1028.4 0.0
24/03:30am 7.0 4.9 6.6 97 0.2 SSE 7 9 4 5 1028.4 1028.3 0.0
24/03:00am 6.3 3.6 5.7 96 0.3 SSE 9 11 5 6 1028.3 1028.2 0.0
24/02:30am 6.2 3.4 5.3 94 0.4 SSE 9 11 5 6 1028.3 1028.2 0.0
24/02:00am 6.4 4.1 5.0 91 0.6 SSE 6 9 3 5 1028.3 1028.2 0.0
24/01:30am 7.7 4.8 6.6 93 0.5 SSE 11 13 6 7 1028.1 1028.0 0.0
24/01:00am 7.5 4.6 6.3 92 0.5 SSE 11 13 6 7 1028.2 1028.1 0.0
24/12:30am 7.7 5.2 6.5 92 0.6 S 9 11 5 6 1028.3 1028.2 0.0
24/12:00am 7.9 5.0 6.5 91 0.6 SSE 11 13 6 7 1028.3 1028.2 0.0
 
Date/Time
EST
Temp
°C
App
Temp
°C
Dew
Point
Rel
Hum
%
Delta-T
°C
Wind Press
QNH
hPa
Press
MSL
hPa
Rain
since 9 am
mm
Dir
 
Spd
km/h
Gust
km/h
Spd
kts
Gust
kts
23/11:30pm 8.3 5.1 6.8 90 0.7 SSE 13 15 7 8 1028.4 1028.3 0.0
23/11:00pm 8.8 6.0 7.1 89 0.8 S 11 11 6 6 1028.5 1028.4 0.0
23/10:30pm 9.1 6.7 7.1 87 0.9 SSW 9 9 5 5 1028.4 1028.3 0.0
23/10:00pm 9.6 7.2 7.2 85 1.1 SSE 9 9 5 5 1028.2 1028.1 0.0
23/09:30pm 11.0 8.5 8.4 84 1.3 SE 11 13 6 7 1028.1 1028.0 0.0
23/09:00pm 11.5 8.7 8.4 81 1.5 SSE 13 15 7 8 1028.2 1028.1 0.0
23/08:30pm 12.0 8.9 8.7 80 1.7 SSE 15 17 8 9 1028.2 1028.1 0.0
23/08:00pm 12.3 9.1 8.6 78 1.8 S 15 17 8 9 1028.1 1028.0 0.0
23/07:30pm 13.1 9.6 8.8 75 2.2 S 17 17 9 9 1028.0 1027.9 0.0
23/07:00pm 13.2 10.1 8.7 74 2.3 S 15 17 8 9 1027.5 1027.4 0.0
23/06:30pm 13.2 10.8 8.5 73 2.4 S 11 13 6 7 1027.3 1027.2 0.0
23/06:00pm 14.4 11.6 8.6 68 2.9 S 13 17 7 9 1027.1 1027.0 0.0
23/05:30pm 16.1 12.6 8.8 62 3.8 S 17 20 9 11 1027.1 1027.0 0.0
23/05:00pm 17.1 13.2 8.8 58 4.3 S 19 22 10 12 1026.8 1026.7 0.0
23/04:30pm 18.1 13.3 8.7 54 4.9 SSE 24 30 13 16 1026.8 1026.7 0.0
23/04:00pm 19.2 15.3 8.5 50 5.6 SSE 19 26 10 14 1026.8 1026.7 0.0
23/03:30pm 19.5 16.3 8.5 49 5.8 SSE 15 26 8 14 1026.7 1026.6 0.0
23/03:00pm 19.1 15.3 7.5 47 5.9 SE 17 26 9 14 1026.7 1026.6 0.0
23/02:30pm 19.7 16.0 7.8 46 6.2 SE 17 26 9 14 1026.7 1026.6 0.0
23/02:00pm 19.2 15.0 7.3 46 6.0 SE 19 24 10 13 1026.8 1026.7 0.0
23/01:30pm 18.7 14.6 7.8 49 5.6 ESE 19 26 10 14 1027.1 1027.0 0.0
23/01:00pm 19.0 15.3 7.8 48 5.7 ESE 17 24 9 13 1027.4 1027.3 0.0
23/12:30pm 18.3 14.7 8.3 52 5.2 SE 17 22 9 12 1027.8 1027.7 0.0
23/12:00pm 18.1 14.9 8.4 53 5.0 SE 15 24 8 13 1028.1 1028.0 0.0
23/11:30am 17.2 13.2 8.1 55 4.7 SE 19 26 10 14 1028.7 1028.6 0.0
23/11:00am 16.7 12.5 8.4 58 4.2 SE 20 28 11 15 1029.0 1028.9 0.0
23/10:30am 16.0 12.6 9.0 63 3.6 SSE 17 24 9 13 1029.3 1029.2 0.0
23/10:00am 15.0 11.5 8.7 66 3.2 SSE 17 22 9 12 1029.3 1029.2 0.0
23/09:30am 13.5 9.0 8.4 71 2.6 SSE 22 26 12 14 1029.0 1028.9 0.0
23/09:00am 12.0 7.7 7.7 75 2.1 SSE 20 26 11 14 1028.7 1028.6 0.2
23/08:30am 10.3 6.0 7.2 81 1.5 SSE 19 22 10 12 1028.4 1028.3 0.2
23/08:00am 8.2 4.6 6.7 90 0.7 SSE 15 19 8 10 1028.1 1028.0 0.2
23/07:30am 4.9 1.2 4.3 96 0.3 S 13 15 7 8 1028.0 1027.9 0.2
23/07:00am 4.1 0.2 3.5 96 0.2 S 13 13 7 7 1027.8 1027.7 0.2
23/06:39am 4.3 1.2 3.7 96 0.3 SSW 9 11 5 6 1027.6 1027.5 0.2
23/06:30am 3.8 0.6 3.1 95 0.3 SSW 9 11 5 6 1027.6 1027.5 0.2
23/06:06am 4.9 2.5 4.3 96 0.3 SSW 6 7 3 4 1027.2 1027.1 0.2
23/06:00am 5.0 2.6 4.4 96 0.3 SSW 6 7 3 4 1027.0 1026.9 0.2
23/05:30am 5.1 3.5 4.4 95 0.3 S 2 7 1 4 1026.7 1026.6 0.2
23/05:00am 5.6 3.3 4.6 93 0.4 S 6 7 3 4 1026.5 1026.4 0.2
23/04:30am 6.3 4.1 5.3 93 0.4 S 6 6 3 3 1026.3 1026.2 0.2
23/04:00am 7.1 5.0 5.9 92 0.5 S 6 9 3 5 1025.9 1025.8 0.2
23/03:30am 7.6 5.4 6.2 91 0.6 SSW 7 9 4 5 1025.8 1025.7 0.2
23/03:00am 7.2 4.1 5.7 90 0.7 SSE 11 13 6 7 1025.7 1025.6 0.2
23/02:30am 7.9 5.3 6.0 88 0.9 S 9 13 5 7 1025.5 1025.4 0.2
23/02:00am 8.9 4.5 6.7 86 1.0 S 19 20 10 11 1025.2 1025.1 0.2
23/01:30am 8.9 4.6 7.0 88 0.9 S 19 20 10 11 1025.3 1025.2 0.2
23/01:00am 8.8 5.2 6.8 87 0.9 S 15 15 8 8 1025.5 1025.4 0.2
23/12:30am 9.7 6.7 7.5 86 1.1 SSW 13 15 7 8 1025.9 1025.8 0.2
23/12:00am 10.1 6.3 7.5 84 1.2 S 17 19 9 10 1025.7 1025.6 0.2
 
Date/Time
EST
Temp
°C
App
Temp
°C
Dew
Point
Rel
Hum
%
Delta-T
°C
Wind Press
QNH
hPa
Press
MSL
hPa
Rain
since 9 am
mm
Dir
 
Spd
km/h
Gust
km/h
Spd
kts
Gust
kts
22/11:30pm 10.8 6.7 7.9 82 1.4 S 19 20 10 11 1025.6 1025.5 0.2
22/11:00pm 11.7 7.5 8.2 79 1.7 S 20 26 11 14 1025.6 1025.5 0.2
22/10:30pm 12.2 7.7 8.7 79 1.8 S 22 26 12 14 1025.5 1025.4 0.2
22/10:00pm 13.4 9.4 9.1 75 2.2 SSW 20 28 11 15 1025.7 1025.6 0.2
22/09:30pm 14.0 10.1 9.4 74 2.4 SSW 20 26 11 14 1025.6 1025.5 0.2
22/09:00pm 14.5 10.9 9.9 74 2.4 SSW 19 26 10 14 1025.5 1025.4 0.2
22/08:30pm 13.9 11.5 10.1 78 2.0 SW 13 19 7 10 1025.2 1025.1 0.2
22/08:00pm 12.2 10.0 9.4 83 1.4 WSW 11 13 6 7 1024.9 1024.9 0.2
22/07:30pm 13.1 11.0 9.7 80 1.8 SW 11 13 6 7 1024.5 1024.5 0.2
22/07:00pm 12.7 10.5 9.5 81 1.6 WSW 11 13 6 7 1024.2 1024.1 0.2
22/06:30pm 14.0 12.4 10.2 78 2.0 SW 9 13 5 7 1023.8 1023.7 0.2
22/06:00pm 14.4 12.7 9.8 74 2.4 SW 9 11 5 6 1023.6 1023.5 0.2
22/05:30pm 15.0 12.9 9.8 71 2.7 SW 11 13 6 7 1023.3 1023.2 0.2
22/05:00pm 15.6 13.2 9.9 69 3.0 SW 13 17 7 9 1023.1 1023.0 0.2
22/04:30pm 16.0 12.7 9.7 66 3.3 SW 17 22 9 12 1022.9 1022.8 0.2
22/04:00pm 16.0 12.7 9.4 65 3.4 SSW 17 24 9 13 1022.7 1022.6 0.2
22/03:30pm 16.3 12.4 9.5 64 3.6 SSW 20 28 11 15 1022.5 1022.4 0.2
22/03:00pm 16.5 12.8 10.1 66 3.4 SSW 20 30 11 16 1022.2 1022.1 0.2
22/02:30pm 16.0 11.4 9.7 66 3.3 SSW 24 35 13 19 1022.1 1022.0 0.2
22/02:00pm 16.7 12.0 9.1 61 3.9 SW 24 33 13 18 1021.7 1021.6 0.2
22/01:30pm 16.9 12.8 10.1 64 3.6 SW 22 30 12 16 1021.6 1021.5 0.0
22/01:00pm 15.4 11.6 9.7 69 3.0 SW 20 28 11 15 1021.8 1021.7 0.0
22/12:30pm 14.8 11.1 10.0 73 2.5 SSW 20 30 11 16 1021.8 1021.7 0.0
22/12:00pm 14.1 10.0 10.1 77 2.1 SSW 22 28 12 15 1022.0 1021.9 0.0
22/11:30am 13.4 8.4 9.6 78 2.0 SSW 26 33 14 18 1022.4 1022.3 0.0
22/11:00am 13.4 8.4 9.6 78 1.9 SSW 26 33 14 18 1022.5 1022.4 0.0
22/10:30am 13.6 9.0 9.8 78 2.0 SW 24 33 13 18 1022.3 1022.2 0.0
22/10:00am 13.2 7.9 10.0 81 1.7 SW 28 37 15 20 1022.2 1022.1 0.0
22/09:30am 12.8 7.8 9.6 81 1.6 SW 26 35 14 19 1022.0 1021.9 0.0
22/09:28am 12.9 7.9 9.7 81 1.6 SW 26 35 14 19 1022.0 1021.9 0.0
22/09:00am 12.1 7.1 9.5 84 1.3 SW 26 33 14 18 1022.0 1021.9 3.2
22/08:30am 11.8 7.2 9.7 87 1.1 SW 24 33 13 18 1021.5 1021.4 3.2
22/08:00am 11.2 6.5 9.1 87 1.0 WSW 24 33 13 18 1021.4 1021.3 3.2
22/07:52am 11.2 6.9 9.3 88 1.0 WSW 22 30 12 16 1021.3 1021.2 3.2
22/07:30am 11.2 6.8 9.1 87 1.1 WSW 22 30 12 16 1021.2 1021.1 3.2
22/07:00am 11.3 7.3 9.2 87 1.1 SW 20 28 11 15 1020.9 1020.8 3.2
22/06:30am 11.3 8.0 9.6 89 0.9 WSW 17 22 9 12 1020.3 1020.2 3.2
22/06:00am 11.0 7.7 9.4 90 0.8 W 17 22 9 12 1019.9 1019.8 3.2
22/05:30am 11.3 7.4 9.4 88 1.0 WSW 20 32 11 17 1019.6 1019.5 3.2
22/05:00am 11.1 7.4 9.4 89 0.9 WSW 19 28 10 15 1019.2 1019.1 3.2
22/04:30am 11.0 7.1 9.3 89 0.9 WSW 20 28 11 15 1019.0 1018.9 3.2
22/04:00am 11.0 7.0 9.1 88 0.9 W 20 28 11 15 1019.0 1018.9 3.2
22/03:30am 11.1 6.7 9.0 87 1.1 W 22 28 12 15 1019.1 1019.0 3.2
22/03:00am 11.3 7.3 9.2 87 1.1 W 20 32 11 17 1019.1 1019.0 3.2
22/02:30am 11.3 7.3 9.2 87 1.1 W 20 28 11 15 1019.3 1019.2 3.2
22/02:00am 11.4 7.5 9.5 88 1.0 WSW 20 26 11 14 1019.3 1019.2 3.2
22/01:30am 11.4 7.7 9.5 88 1.0 WSW 19 24 10 13 1019.4 1019.3 3.2
22/01:00am 11.7 8.5 9.8 88 1.0 WSW 17 24 9 13 1019.4 1019.3 3.2
22/12:30am 11.9 7.6 9.3 84 1.3 WSW 22 33 12 18 1019.6 1019.5 3.2
22/12:00am 12.1 8.4 10.0 87 1.1 W 20 32 11 17 1019.6 1019.5 3.2
 
Date/Time
EST
Temp
°C
App
Temp
°C
Dew
Point
Rel
Hum
%
Delta-T
°C
Wind Press
QNH
hPa
Press
MSL
hPa
Rain
since 9 am
mm
Dir
 
Spd
km/h
Gust
km/h
Spd
kts
Gust
kts
21/11:30pm 12.0 8.3 10.2 89 0.9 W 20 26 11 14 1019.7 1019.6 3.2
21/11:00pm 12.1 8.5 10.5 90 0.8 W 20 30 11 16 1019.8 1019.7 3.2
21/10:30pm 12.0 8.6 10.6 91 0.7 W 19 22 10 12 1019.6 1019.5 3.2
21/10:28pm 12.0 9.0 10.6 91 0.7 W 17 22 9 12 1019.6 1019.5 3.2
21/10:13pm 12.1 8.7 10.7 91 0.7 W 19 28 10 15 1019.7 1019.6 3.2
21/10:12pm 12.1 8.7 10.7 91 0.7 W 19 28 10 15 1019.7 1019.6 3.2
21/10:00pm 12.0 9.4 10.7 92 0.7 W 15 22 8 12 1019.5 1019.4 3.2
21/09:56pm 11.9 9.6 10.6 92 0.7 W 13 20 7 11 1019.4 1019.3 3.2
21/09:30pm 12.1 9.8 10.5 90 0.8 WNW 13 17 7 9 1019.5 1019.4 3.2
21/09:00pm 12.3 10.1 10.7 90 0.8 WNW 13 17 7 9 1019.4 1019.3 3.2
21/08:30pm 12.4 9.8 10.8 90 0.8 NNW 15 20 8 11 1019.7 1019.6 3.2
21/08:00pm 12.2 9.7 10.9 92 0.7 NNW 15 20 8 11 1019.7 1019.6 3.2
21/07:30pm 12.3 10.9 11.0 92 0.7 NNW 9 11 5 6 1019.2 1019.1 3.2
21/07:00pm 12.2 10.7 10.6 90 0.8 NW 9 11 5 6 1019.2 1019.1 3.2
21/06:30pm 12.1 9.9 10.8 92 0.7 W 13 20 7 11 1019.5 1019.4 3.2
21/06:00pm 11.9 9.3 10.8 93 0.6 WSW 15 19 8 10 1019.1 1019.0 3.0
21/05:30pm 11.8 8.4 10.5 92 0.7 WSW 19 26 10 14 1019.3 1019.2 2.4
21/05:13pm 11.9 7.9 10.3 90 0.8 WSW 22 28 12 15 1019.1 1019.0 1.6
21/05:00pm 11.9 7.9 10.3 90 0.8 WSW 22 28 12 15 1019.2 1019.1 1.4
21/04:53pm 12.0 7.1 10.1 88 1.0 WSW 26 39 14 21 1019.3 1019.2 1.0
21/04:46pm 12.3 6.2 9.7 84 1.3 WSW 32 50 17 27 1019.1 1019.0 0.2
21/04:30pm 13.9 7.4 9.1 73 2.5 WSW 33 50 18 27 1019.0 1018.9 0.0
21/04:24pm 15.3 10.1 8.8 65 3.3 WNW 26 50 14 27 1019.0 1018.9 0.0
21/04:23pm 17.0 12.7 10.8 67 3.3 WNW 24 43 13 23 1018.9 1018.8 0.0
21/04:00pm 18.5 15.7 12.5 68 3.4 NNW 19 24 10 13 1017.4 1017.2 0.0
21/03:30pm 17.9 14.8 12.1 69 3.2 NNW 20 28 11 15 1017.5 1017.3 0.0
21/03:00pm 17.9 14.9 12.4 70 3.1 NW 20 32 11 17 1017.9 1017.7 0.0
21/02:30pm 18.1 15.0 12.3 69 3.2 NNW 20 28 11 15 1017.9 1017.7 0.0
21/02:00pm 17.8 15.0 12.7 72 2.9 NNW 19 26 10 14 1018.2 1018.1 0.0

Other Formats:

Comma delimited format used in spreadsheet applications
http://www.bom.gov.au/fwo/IDN60801/IDN60801.95715.axf

JavaScript Object Notation format (JSON) in row-major order
http://www.bom.gov.au/fwo/IDN60801/IDN60801.95715.json